EDT,Max TemperatureF,Mean TemperatureF,Min TemperatureF,Max Dew PointF,MeanDew PointF,Min DewpointF,Max Humidity, Mean Humidity, Min Humidity, Max Sea Level PressureIn, Mean Sea Level PressureIn, Min Sea Level PressureIn, Max VisibilityMiles, Mean VisibilityMiles, Min VisibilityMiles, Max Wind SpeedMPH, Mean Wind SpeedMPH, Max Gust SpeedMPH,PrecipitationIn, CloudCover, Events, WindDirDegrees
2013-10-1,75,68,62,61,60,59,94,76,57,30.03,29.99,29.95,10,8,3,13,8,,0.00,6,,206
2013-10-2,80,72,64,64,53,43,100,54,30,30.11,30.07,30.03,10,8,1,6,1,,0.00,2,,62
2013-10-3,75,70,64,68,66,63,100,89,69,30.02,29.98,29.93,10,5,1,13,5,18,0.00,6,Rain-Thunderstorm,200
2013-10-4,78,71,64,70,66,63,94,81,65,30.03,30.00,29.98,10,10,10,8,3,,0.00,3,,210
2013-10-5,75,70,64,68,67,64,100,89,78,29.99,29.96,29.88,10,6,1,10,5,,0.00,5,Rain,154
2013-10-6,66,60,53,64,55,48,100,90,67,29.77,29.75,29.71,10,6,1,12,8,21,0.00,7,Rain,265
2013-10-7,60,52,44,48,43,37,93,73,51,30.07,29.94,29.80,10,9,2,18,10,23,0.00,4,,253
2013-10-8,73,58,44,48,46,43,93,63,36,30.24,30.21,30.19,10,10,10,10,4,,0.00,0,,152
2013-10-9,71,58,44,46,43,39,93,58,31,30.29,30.25,30.19,10,10,10,9,2,,0.00,1,,107
2013-10-10,73,58,44,50,46,43,100,61,36,30.21,30.17,30.11,10,9,1,7,1,,0.00,1,,157
2013-10-11,75,60,44,48,44,39,100,58,27,30.14,30.09,30.04,10,8,2,8,2,,0.00,0,,138
2013-10-12,77,64,50,54,51,48,94,62,36,30.08,30.05,30.02,10,8,2,14,3,,0.00,1,,176
2013-10-13,64,54,44,50,41,36,100,59,37,30.35,30.33,30.28,10,10,10,14,4,17,0.00,0,,310
2013-10-14,64,52,39,45,41,37,93,63,40,30.41,30.33,30.24,10,10,10,12,4,16,0.00,1,,88
2013-10-15,62,54,46,61,53,41,94,85,77,30.10,29.95,29.84,10,7,3,10,6,,0.00,5,Rain,152
2013-10-16,53,50,46,45,43,41,82,77,72,29.93,29.91,29.87,10,10,10,16,10,20,0.00,7,,237
2013-10-17,50,49,48,46,45,41,93,85,71,29.88,29.85,29.81,10,8,5,15,7,18,0.00,8,Rain,242
2013-10-18,59,48,37,45,40,37,100,73,48,29.97,29.91,29.88,10,9,7,16,5,24,0.00,4,,246
2013-10-19,51,46,41,41,37,28,93,74,43,29.87,29.84,29.80,10,9,7,15,8,18,0.00,7,Rain,241
2013-10-20,60,49,39,39,37,36,87,58,44,29.91,29.87,29.82,10,10,10,9,7,17,0.00,4,,212
2013-10-21,51,48,42,46,40,32,87,73,57,29.92,29.89,29.85,10,10,10,14,8,21,0.00,7,Rain,251
2013-10-22,48,39,30,32,28,25,81,66,43,29.97,29.95,29.91,10,10,10,13,7,16,0.00,4,Rain,252
2013-10-23,41,38,35,36,32,25,93,77,53,29.99,29.94,29.86,10,10,7,18,6,18,0.00,7,Rain,277
2013-10-24,41,37,33,34,32,30,93,81,65,30.21,30.11,30.01,10,10,10,14,8,,0.00,8,Rain,287
2013-10-25,48,39,30,36,28,21,100,66,37,30.38,30.31,30.18,10,9,4,18,5,,0.00,3,,241
2013-10-26,51,46,41,36,32,25,76,60,53,29.93,29.88,29.85,10,10,10,18,14,28,0.00,7,,257
2013-10-27,53,42,30,34,28,27,100,51,35,30.07,30.03,30.00,10,10,7,12,6,18,0.00,0,,243
2013-10-28,55,42,30,36,33,28,93,61,41,30.31,30.24,30.15,10,9,7,7,1,,0.00,0,,65
2013-10-29,55,44,33,37,35,30,87,66,47,30.39,30.32,30.22,10,10,10,9,7,,0.00,1,,107
2013-10-30,59,49,39,55,48,37,94,80,72,30.17,30.07,29.98,10,8,3,8,3,,0.00,5,,127
2013-10-31,62,60,59,59,58,57,100,94,88,29.72,29.50,29.24,10,6,2,15,11,23,0.00,8,Rain,194